Time;durP1;ratioP1;P1;durP2;ratioP2;P2;SDS_P1;SDS_P2;PMS_P1;PMS_P2;Temp;Humidity;BMP_temperature;BMP_pressure;BME280_temperature;BME280_humidity;BME280_pressure;Samples;Min_cycle;Max_cycle;Signal;HPM_P1;HPM_P2
2022/09/17 00:02:05;;;;;;;4.83;4.37;;;10.60;99.90;;;;;;4961098;28;20272;-79
2022/09/17 00:04:32;;;;;;;5.07;4.87;;;10.60;99.90;;;;;;4959776;28;20284;-79
2022/09/17 00:06:57;;;;;;;7.50;6.90;;;10.50;99.90;;;;;;4960143;28;20181;-79
2022/09/17 00:09:25;;;;;;;13.37;12.77;;;10.50;99.90;;;;;;4976813;28;20220;-79
2022/09/17 00:11:51;;;;;;;34.23;32.67;;;10.50;99.90;;;;;;4947395;29;20181;-79
2022/09/17 00:14:17;;;;;;;39.53;37.67;;;10.40;99.90;;;;;;4959436;29;20209;-78
2022/09/17 00:16:46;;;;;;;41.53;39.53;;;10.40;99.90;;;;;;4957458;29;20564;-78
2022/09/17 00:19:14;;;;;;;41.17;39.20;;;10.40;99.90;;;;;;4957486;29;20576;-78
2022/09/17 00:21:41;;;;;;;43.50;41.47;;;10.40;99.90;;;;;;4969416;28;20568;-78
2022/09/17 00:24:10;;;;;;;39.93;38.03;;;10.40;99.90;;;;;;4959498;28;20205;-78
2022/09/17 00:26:36;;;;;;;34.33;32.63;;;10.50;99.90;;;;;;4959301;28;20185;-78
2022/09/17 00:29:04;;;;;;;32.50;31.00;;;10.40;99.90;;;;;;4976504;28;20764;-78
2022/09/17 00:31:33;;;;;;;30.00;28.33;;;10.50;99.90;;;;;;4950068;29;20764;-79
2022/09/17 00:34:00;;;;;;;35.00;33.37;;;10.50;99.90;;;;;;4942369;29;20208;-79
2022/09/17 00:36:27;;;;;;;45.67;43.40;;;10.50;99.90;;;;;;4942195;29;20174;-78
2022/09/17 00:38:54;;;;;;;30.13;28.77;;;10.60;99.90;;;;;;4958318;29;20190;-78
2022/09/17 00:41:23;;;;;;;9.40;8.90;;;10.60;99.90;;;;;;4968975;28;20184;-77
2022/09/17 00:43:56;;;;;;;5.10;4.90;;;10.60;99.90;;;;;;4977846;28;20193;-77
2022/09/17 00:46:31;;;;;;;5.07;4.80;;;10.70;99.90;;;;;;4969933;28;20189;-79
2022/09/17 00:49:00;;;;;;;7.20;6.83;;;10.70;99.90;;;;;;4959336;28;20212;-78
2022/09/17 00:51:33;;;;;;;8.67;8.17;;;10.70;99.90;;;;;;4950762;29;20268;-79
2022/09/17 00:54:02;;;;;;;8.60;8.10;;;10.70;99.90;;;;;;4940086;29;20700;-79
2022/09/17 00:56:32;;;;;;;10.87;10.33;;;10.80;99.90;;;;;;4940534;29;20182;-79
2022/09/17 00:59:01;;;;;;;33.93;32.27;;;10.70;99.90;;;;;;4939265;29;20190;-78
2022/09/17 01:01:27;;;;;;;36.47;34.70;;;10.70;99.90;;;;;;4947418;28;20181;-78
2022/09/17 01:03:53;;;;;;;55.53;52.73;;;10.80;99.90;;;;;;4959102;28;20189;-79
2022/09/17 01:07:24;;;;;;;83.77;79.60;;;10.70;99.90;;;;;;4969482;28;20177;-78
2022/09/17 01:10:25;;;;;;;62.10;59.00;;;10.70;99.90;;;;;;4881380;29;20251;-79
2022/09/17 01:13:19;;;;;;;58.33;55.60;;;10.70;99.90;;;;;;4836512;29;20188;-78
2022/09/17 01:16:03;;;;;;;85.60;81.47;;;10.70;99.90;;;;;;4940787;28;20208;-78
2022/09/17 01:19:03;;;;;;;88.03;83.87;;;10.70;99.90;;;;;;4956884;29;20192;-78
2022/09/17 01:21:45;;;;;;;93.80;89.40;;;10.70;99.90;;;;;;4940406;29;20186;-79
2022/09/17 01:24:44;;;;;;;105.70;100.70;;;10.70;99.90;;;;;;4957289;29;20241;-79
2022/09/17 01:27:16;;;;;;;105.80;100.67;;;10.70;99.90;;;;;;4942691;28;20375;-77
2022/09/17 01:30:01;;;;;;;91.70;87.40;;;10.70;99.90;;;;;;4990502;28;20199;-78
2022/09/17 01:32:30;;;;;;;62.77;59.60;;;10.60;99.90;;;;;;4974867;28;20181;-78
2022/09/17 01:35:01;;;;;;;96.77;92.07;;;10.50;99.90;;;;;;4974844;28;20201;-78
2022/09/17 01:37:32;;;;;;;121.17;115.33;;;10.40;99.90;;;;;;4955490;28;20189;-78
2022/09/17 01:40:06;;;;;;;109.27;104.00;;;10.40;99.90;;;;;;4974799;28;20177;-78
2022/09/17 01:42:50;;;;;;;68.03;64.67;;;10.30;99.90;;;;;;4957373;28;20188;-78
2022/09/17 01:45:33;;;;;;;40.57;38.53;;;10.40;99.90;;;;;;4960668;28;20211;-78
2022/09/17 01:48:04;;;;;;;20.33;19.27;;;10.40;99.90;;;;;;4969933;28;20252;-78
2022/09/17 01:50:37;;;;;;;27.70;26.43;;;10.50;99.90;;;;;;4945036;28;20187;-78
2022/09/17 01:53:06;;;;;;;18.30;17.47;;;10.50;99.90;;;;;;4957085;28;20862;-77
2022/09/17 01:55:36;;;;;;;24.87;23.40;;;10.50;99.90;;;;;;4974392;28;20205;-78
2022/09/17 01:58:26;;;;;;;18.63;17.67;;;10.50;99.90;;;;;;4954444;28;20189;-78
2022/09/17 02:00:58;;;;;;;19.50;18.30;;;10.60;99.90;;;;;;4965589;28;20188;-79
2022/09/17 02:03:39;;;;;;;24.83;23.33;;;10.50;99.90;;;;;;4959711;28;20185;-79
2022/09/17 02:06:16;;;;;;;40.03;38.13;;;10.50;99.90;;;;;;4959893;28;20363;-79
2022/09/17 02:09:11;;;;;;;59.17;55.80;;;10.50;99.90;;;;;;4952146;29;20212;-79
2022/09/17 02:11:40;;;;;;;49.90;47.30;;;10.50;99.90;;;;;;4953357;29;20194;-78
2022/09/17 02:14:12;;;;;;;27.47;26.20;;;10.50;99.90;;;;;;4972551;29;20202;-77
2022/09/17 02:16:45;;;;;;;16.40;15.63;;;10.40;99.90;;;;;;4972788;29;20257;-77
2022/09/17 02:19:22;;;;;;;7.43;6.93;;;10.30;99.90;;;;;;4950192;28;20189;-78
2022/09/17 02:21:54;;;;;;;7.33;6.67;;;10.30;99.90;;;;;;4959950;28;20239;-78
2022/09/17 02:24:23;;;;;;;9.27;8.87;;;10.30;99.90;;;;;;4965885;28;20212;-78
2022/09/17 02:27:01;;;;;;;10.70;9.90;;;10.30;99.90;;;;;;4964686;28;20591;-78
2022/09/17 02:29:32;;;;;;;11.80;11.10;;;10.30;99.90;;;;;;4951341;29;20219;-78
2022/09/17 02:32:00;;;;;;;11.27;10.57;;;10.30;99.90;;;;;;4945670;29;20178;-78
2022/09/17 02:34:28;;;;;;;11.67;10.97;;;10.30;99.90;;;;;;4945575;29;20682;-78
2022/09/17 02:36:55;;;;;;;10.13;9.40;;;10.30;99.90;;;;;;4944250;29;20608;-78
2022/09/17 02:39:21;;;;;;;10.00;9.40;;;10.30;99.90;;;;;;4951360;29;20192;-77
2022/09/17 02:42:03;;;;;;;9.27;8.87;;;10.30;99.90;;;;;;4950541;29;20189;-77
2022/09/17 02:44:39;;;;;;;8.60;8.10;;;10.30;99.90;;;;;;4946290;29;20213;-78
2022/09/17 02:47:27;;;;;;;9.20;8.77;;;10.20;99.90;;;;;;4960734;29;20189;-77
2022/09/17 02:50:15;;;;;;;8.30;7.90;;;10.20;99.90;;;;;;4962380;28;20225;-78
2022/09/17 02:53:15;;;;;;;8.23;7.73;;;10.10;99.90;;;;;;4980716;28;20268;-78
2022/09/17 02:55:57;;;;;;;32.63;31.00;;;10.00;99.90;;;;;;4964362;28;20212;-78
2022/09/17 02:58:42;;;;;;;39.43;37.47;;;10.10;99.90;;;;;;4979747;28;20190;-78
2022/09/17 03:01:18;;;;;;;36.37;34.57;;;10.20;99.90;;;;;;4943955;29;20284;-78
2022/09/17 03:03:46;;;;;;;22.33;21.23;;;10.20;99.90;;;;;;4943646;28;20244;-78
2022/09/17 03:06:12;;;;;;;10.83;10.23;;;10.30;99.90;;;;;;4944480;29;20193;-78
2022/09/17 03:08:40;;;;;;;8.20;7.60;;;10.20;99.90;;;;;;4979311;28;20757;-78
2022/09/17 03:11:09;;;;;;;7.60;7.13;;;10.20;99.90;;;;;;4980881;28;20185;-78
2022/09/17 03:13:35;;;;;;;9.03;8.43;;;10.10;99.90;;;;;;4963183;28;20204;-78
2022/09/17 03:16:06;;;;;;;18.23;17.43;;;10.10;99.90;;;;;;4966499;28;20267;-77
2022/09/17 03:18:32;;;;;;;32.47;30.50;;;10.00;99.90;;;;;;4982114;28;20200;-78
2022/09/17 03:20:58;;;;;;;35.17;33.17;;;10.00;99.90;;;;;;4965444;28;20188;-77
2022/09/17 03:23:25;;;;;;;35.70;33.67;;;10.00;99.90;;;;;;4965237;28;20188;-76
2022/09/17 03:25:51;;;;;;;28.37;26.77;;;10.10;99.90;;;;;;4975122;28;20221;-77
2022/09/17 03:28:17;;;;;;;18.33;17.30;;;10.10;99.90;;;;;;4971217;28;20693;-77
2022/09/17 03:30:44;;;;;;;8.57;8.07;;;10.10;99.90;;;;;;4960996;28;20556;-78
2022/09/17 03:33:10;;;;;;;7.33;7.03;;;10.20;99.90;;;;;;4959397;28;20209;-77
2022/09/17 03:35:36;;;;;;;8.30;7.67;;;10.20;99.90;;;;;;4959146;28;20223;-77
2022/09/17 03:38:02;;;;;;;9.07;8.27;;;10.10;99.90;;;;;;4972447;28;20330;-78
2022/09/17 03:40:28;;;;;;;7.83;7.27;;;10.10;99.90;;;;;;4960350;28;20186;-79
2022/09/17 03:42:55;;;;;;;7.83;7.33;;;10.10;99.90;;;;;;4961721;28;20177;-78
2022/09/17 03:45:20;;;;;;;10.30;9.70;;;10.10;99.90;;;;;;4961861;28;20252;-77
2022/09/17 03:47:47;;;;;;;11.17;10.27;;;10.10;99.90;;;;;;4960919;28;20221;-79
2022/09/17 03:50:13;;;;;;;10.33;9.53;;;10.10;99.90;;;;;;4991578;23;20245;-79
2022/09/17 03:52:41;;;;;;;10.07;9.50;;;10.10;99.90;;;;;;4975316;28;20244;-77
2022/09/17 03:55:07;;;;;;;11.27;10.23;;;10.10;99.90;;;;;;4975076;28;20180;-78
2022/09/17 03:57:33;;;;;;;11.70;11.13;;;10.10;99.90;;;;;;4974022;28;20191;-76
2022/09/17 04:00:00;;;;;;;10.80;10.10;;;10.20;99.90;;;;;;4973902;28;20205;-77
2022/09/17 04:02:26;;;;;;;9.37;8.67;;;10.10;99.90;;;;;;4973321;28;20603;-78
2022/09/17 04:04:53;;;;;;;12.20;11.40;;;10.10;99.90;;;;;;4975508;28;20181;-78
2022/09/17 04:07:19;;;;;;;12.57;11.37;;;10.10;99.90;;;;;;4974289;28;20203;-78
2022/09/17 04:09:44;;;;;;;12.67;11.97;;;10.10;99.90;;;;;;4974121;28;20291;-77
2022/09/17 04:12:10;;;;;;;11.87;10.90;;;10.10;99.90;;;;;;4975347;28;20200;-78
2022/09/17 04:14:36;;;;;;;11.17;10.43;;;10.00;99.90;;;;;;4975137;28;20618;-78
2022/09/17 04:17:02;;;;;;;10.93;10.33;;;10.10;99.90;;;;;;4976676;28;20191;-76
2022/09/17 04:19:27;;;;;;;10.57;9.80;;;10.10;99.90;;;;;;4984600;28;20212;-78
2022/09/17 04:21:54;;;;;;;11.47;10.57;;;10.10;99.90;;;;;;4974806;28;20189;-77
2022/09/17 04:24:20;;;;;;;11.97;11.27;;;10.10;99.90;;;;;;4979191;28;20192;-75
2022/09/17 04:26:46;;;;;;;11.03;10.33;;;10.10;99.90;;;;;;4977604;28;20209;-76
2022/09/17 04:29:11;;;;;;;8.00;7.47;;;10.20;99.90;;;;;;4973867;28;20209;-77
2022/09/17 04:31:37;;;;;;;6.93;6.37;;;10.20;99.90;;;;;;4974219;28;20185;-77
2022/09/17 04:34:03;;;;;;;15.47;14.23;;;10.20;99.90;;;;;;4974102;28;20638;-77
2022/09/17 04:36:30;;;;;;;33.77;31.87;;;10.20;99.90;;;;;;4971800;28;20570;-75
2022/09/17 04:38:56;;;;;;;108.00;102.33;;;10.20;99.90;;;;;;4962285;28;20208;-76
2022/09/17 04:41:21;;;;;;;122.87;116.47;;;10.20;99.90;;;;;;4973547;28;20240;-77
2022/09/17 04:43:48;;;;;;;125.90;119.80;;;10.20;99.90;;;;;;4972906;28;20181;-76
2022/09/17 04:46:15;;;;;;;128.80;122.40;;;10.20;99.90;;;;;;4971887;28;20658;-74
2022/09/17 04:48:41;;;;;;;134.57;127.90;;;10.30;99.90;;;;;;4971345;28;20224;-76
2022/09/17 04:51:07;;;;;;;135.33;128.30;;;10.30;99.90;;;;;;4971940;28;20189;-75
2022/09/17 04:53:33;;;;;;;137.97;131.17;;;10.30;99.90;;;;;;4971950;28;20188;-75
2022/09/17 04:55:59;;;;;;;134.10;127.43;;;10.30;99.90;;;;;;4974016;28;20268;-76
2022/09/17 04:58:25;;;;;;;133.23;126.47;;;10.30;99.90;;;;;;4988990;28;20185;-74
2022/09/17 05:00:51;;;;;;;120.13;113.70;;;10.30;99.90;;;;;;4983984;28;20197;-76
2022/09/17 05:03:17;;;;;;;115.73;109.80;;;10.30;99.90;;;;;;4972904;28;20181;-75
2022/09/17 05:05:42;;;;;;;106.90;101.07;;;10.30;99.90;;;;;;4972985;28;20189;-76
2022/09/17 05:08:08;;;;;;;69.50;65.60;;;10.30;99.90;;;;;;4972212;28;20212;-75
2022/09/17 05:10:35;;;;;;;56.27;53.43;;;10.30;99.90;;;;;;4971415;28;20630;-77
2022/09/17 05:13:01;;;;;;;72.60;68.70;;;10.20;99.90;;;;;;4972765;28;20280;-75
2022/09/17 05:15:27;;;;;;;76.60;72.90;;;10.30;99.90;;;;;;4971490;28;20324;-76
2022/09/17 05:17:53;;;;;;;65.03;61.67;;;10.30;99.90;;;;;;4972340;28;20188;-76
2022/09/17 05:20:19;;;;;;;68.77;65.03;;;10.30;99.90;;;;;;4972621;28;20877;-75
2022/09/17 05:22:51;;;;;;;55.83;52.57;;;10.30;99.90;;;;;;4972247;28;20189;-77
2022/09/17 05:25:22;;;;;;;76.33;72.10;;;10.30;99.90;;;;;;4971277;28;20622;-75
2022/09/17 05:27:49;;;;;;;97.37;92.03;;;10.30;99.90;;;;;;4971337;28;20208;-73
2022/09/17 05:30:14;;;;;;;100.73;95.90;;;10.30;99.90;;;;;;4972103;28;20620;-74
2022/09/17 05:32:40;;;;;;;159.93;151.30;;;10.30;99.90;;;;;;4971079;28;20273;-73
2022/09/17 05:35:07;;;;;;;96.53;91.80;;;10.30;99.90;;;;;;4971435;28;20169;-73
2022/09/17 05:37:33;;;;;;;44.23;41.83;;;10.30;99.90;;;;;;4970947;28;20344;-76
2022/09/17 05:39:59;;;;;;;54.27;51.27;;;10.30;99.90;;;;;;4970365;28;20197;-72
2022/09/17 05:42:25;;;;;;;72.17;68.03;;;10.30;99.90;;;;;;4970935;28;20181;-72
2022/09/17 05:44:51;;;;;;;43.70;41.47;;;10.30;99.90;;;;;;4971081;28;20573;-75
2022/09/17 05:47:17;;;;;;;18.97;17.80;;;10.30;99.90;;;;;;4972015;28;20188;-75
2022/09/17 05:49:43;;;;;;;15.37;14.30;;;10.30;99.90;;;;;;4970641;28;20689;-74
2022/09/17 05:52:09;;;;;;;9.43;7.90;;;10.40;99.90;;;;;;4971917;28;20187;-73
2022/09/17 05:54:35;;;;;;;8.10;7.47;;;10.30;99.90;;;;;;4971059;28;20204;-74
2022/09/17 05:57:01;;;;;;;5.93;5.53;;;10.40;99.90;;;;;;4970501;28;20208;-72
2022/09/17 05:59:26;;;;;;;6.27;5.87;;;10.40;99.90;;;;;;4970500;28;20215;-73
2022/09/17 06:01:52;;;;;;;7.73;7.00;;;10.40;99.90;;;;;;4971011;28;20197;-74
2022/09/17 06:04:18;;;;;;;9.30;6.70;;;10.40;99.90;;;;;;4970866;28;20185;-74
2022/09/17 06:06:44;;;;;;;8.70;8.07;;;10.40;99.90;;;;;;4971287;28;20284;-74
2022/09/17 06:09:11;;;;;;;9.53;8.83;;;10.50;99.90;;;;;;4959900;28;20923;-75
2022/09/17 06:11:37;;;;;;;9.00;8.53;;;10.50;99.90;;;;;;4952369;28;20189;-76
2022/09/17 06:14:04;;;;;;;8.50;7.93;;;10.60;99.90;;;;;;4952437;28;20177;-73
2022/09/17 06:16:30;;;;;;;6.93;6.00;;;10.70;99.90;;;;;;4951490;28;20185;-73
2022/09/17 06:18:56;;;;;;;5.97;5.47;;;10.70;99.90;;;;;;4951778;28;20747;-73
2022/09/17 06:21:23;;;;;;;6.07;5.00;;;10.80;99.90;;;;;;4966303;28;20268;-74
2022/09/17 06:23:49;;;;;;;7.53;5.10;;;10.80;99.90;;;;;;4961184;28;20184;-76
2022/09/17 06:26:16;;;;;;;5.47;5.00;;;10.90;99.90;;;;;;4970802;28;20193;-73
2022/09/17 06:28:42;;;;;;;6.03;4.77;;;10.70;99.90;;;;;;4971229;28;20275;-73
2022/09/17 06:31:09;;;;;;;5.20;4.70;;;10.70;99.90;;;;;;4971903;28;20657;-74
2022/09/17 06:33:35;;;;;;;7.50;4.90;;;10.60;99.90;;;;;;4970579;28;20188;-74
2022/09/17 06:36:07;;;;;;;7.17;5.00;;;10.60;99.90;;;;;;4970673;28;20293;-74
2022/09/17 06:38:34;;;;;;;14.43;5.27;;;10.60;99.90;;;;;;4980402;28;20193;-72
2022/09/17 06:41:01;;;;;;;4.97;4.53;;;10.60;99.90;;;;;;4981556;28;20669;-75
2022/09/17 06:43:27;;;;;;;5.77;4.23;;;10.60;99.90;;;;;;4971852;28;20650;-75
2022/09/17 06:45:58;;;;;;;4.30;4.00;;;10.60;99.90;;;;;;4972201;28;20193;-74
2022/09/17 06:48:26;;;;;;;4.67;4.37;;;10.60;99.90;;;;;;4971588;28;20205;-74
2022/09/17 06:50:53;;;;;;;5.63;4.90;;;10.60;99.90;;;;;;4971641;28;20185;-74
2022/09/17 06:53:20;;;;;;;9.33;4.70;;;10.60;99.90;;;;;;4970607;28;20188;-74
2022/09/17 06:55:46;;;;;;;5.13;4.73;;;10.60;99.90;;;;;;4971116;28;20192;-73
2022/09/17 06:58:12;;;;;;;7.33;4.83;;;10.60;99.90;;;;;;4969940;28;20188;-73
2022/09/17 07:00:37;;;;;;;6.60;4.80;;;10.60;99.90;;;;;;4971723;28;20243;-74
2022/09/17 07:03:03;;;;;;;5.90;5.00;;;10.70;99.90;;;;;;4971131;28;20240;-74
2022/09/17 07:05:31;;;;;;;6.23;5.50;;;10.80;99.90;;;;;;4970480;28;20662;-74
2022/09/17 07:08:01;;;;;;;7.23;6.63;;;10.80;99.90;;;;;;4971121;28;20685;-74
2022/09/17 07:10:27;;;;;;;8.07;7.27;;;10.80;99.90;;;;;;4974517;28;20550;-73
2022/09/17 07:12:53;;;;;;;7.33;6.43;;;10.80;99.90;;;;;;4974543;28;20184;-73
2022/09/17 07:15:19;;;;;;;10.10;9.10;;;11.00;99.90;;;;;;4974477;28;20184;-74
2022/09/17 07:17:45;;;;;;;14.00;13.07;;;11.20;99.90;;;;;;4973257;28;20173;-74
2022/09/17 07:20:11;;;;;;;18.33;16.83;;;11.20;99.90;;;;;;4975024;28;20553;-74
2022/09/17 07:22:37;;;;;;;13.43;12.10;;;11.30;99.90;;;;;;4974104;28;20239;-73
2022/09/17 07:25:04;;;;;;;11.60;10.80;;;11.30;99.90;;;;;;4975186;28;20263;-73
2022/09/17 07:27:31;;;;;;;10.80;10.00;;;11.20;99.90;;;;;;4974729;28;20654;-74
2022/09/17 07:29:57;;;;;;;8.23;7.00;;;11.00;99.90;;;;;;4973732;28;20213;-73
2022/09/17 07:32:24;;;;;;;7.83;6.97;;;10.80;99.90;;;;;;4975067;28;20213;-74
2022/09/17 07:34:51;;;;;;;10.70;10.10;;;10.70;99.90;;;;;;4974823;28;20192;-74
2022/09/17 07:37:18;;;;;;;22.77;21.43;;;10.40;99.90;;;;;;4967828;28;20190;-73
2022/09/17 07:39:44;;;;;;;113.53;107.60;;;10.30;99.90;;;;;;4956189;28;20217;-74
2022/09/17 07:42:10;;;;;;;136.33;129.47;;;10.20;99.90;;;;;;4960626;28;20180;-74
2022/09/17 07:44:36;;;;;;;8.40;7.60;;;10.20;99.90;;;;;;4974618;28;20177;-74
2022/09/17 07:47:03;;;;;;;19.87;18.37;;;10.00;99.90;;;;;;4972922;28;20181;-74
2022/09/17 07:49:29;;;;;;;49.80;47.33;;;9.90;99.90;;;;;;4974302;28;20213;-74
2022/09/17 07:51:55;;;;;;;22.17;20.50;;;9.90;99.90;;;;;;4974237;28;20181;-74
2022/09/17 07:54:22;;;;;;;29.73;27.97;;;10.00;99.90;;;;;;4974622;28;20189;-74
2022/09/17 07:56:48;;;;;;;28.47;26.77;;;10.10;99.90;;;;;;4972330;28;20201;-74
2022/09/17 07:59:14;;;;;;;38.47;36.20;;;10.20;99.90;;;;;;4972500;28;20200;-74
2022/09/17 08:01:40;;;;;;;34.20;32.10;;;10.30;99.90;;;;;;4974109;28;20559;-74
2022/09/17 08:04:05;;;;;;;28.70;27.07;;;10.40;99.90;;;;;;4974440;28;20200;-76
2022/09/17 08:06:36;;;;;;;9.90;9.27;;;10.40;99.90;;;;;;4973311;28;20192;-75
2022/09/17 08:09:03;;;;;;;13.93;12.97;;;10.30;99.90;;;;;;4973898;28;20224;-75
2022/09/17 08:11:30;;;;;;;30.53;28.93;;;10.10;99.90;;;;;;4973182;28;20188;-74
2022/09/17 08:13:56;;;;;;;22.53;21.33;;;10.10;99.90;;;;;;4974330;28;20193;-75
2022/09/17 08:16:23;;;;;;;20.70;19.60;;;10.10;99.90;;;;;;4972935;28;20545;-75
2022/09/17 08:18:55;;;;;;;12.80;12.10;;;10.10;99.90;;;;;;4972660;28;20801;-75
2022/09/17 08:21:23;;;;;;;9.47;8.70;;;10.00;99.90;;;;;;4987589;28;20200;-72
2022/09/17 08:23:49;;;;;;;8.90;8.20;;;10.10;99.90;;;;;;4987079;28;20666;-79
2022/09/17 08:26:19;;;;;;;15.07;14.20;;;10.30;99.90;;;;;;4976819;28;20272;-77
2022/09/17 08:28:48;;;;;;;20.80;19.53;;;10.50;99.90;;;;;;4973511;28;20216;-81
2022/09/17 08:31:15;;;;;;;36.27;34.20;;;10.50;99.90;;;;;;4975211;28;20280;-77
2022/09/17 08:33:42;;;;;;;79.30;73.80;;;10.60;99.90;;;;;;4976916;28;20185;-76
2022/09/17 08:36:10;;;;;;;23.97;22.37;;;10.70;99.90;;;;;;4974335;28;20231;-75
2022/09/17 08:38:37;;;;;;;10.57;9.77;;;10.70;99.90;;;;;;4973421;28;20736;-74
2022/09/17 08:41:11;;;;;;;7.97;7.53;;;10.80;99.90;;;;;;4973816;28;20188;-75
2022/09/17 08:44:07;;;;;;;10.53;9.80;;;10.90;99.90;;;;;;4973632;28;20589;-73
2022/09/17 08:46:50;;;;;;;23.50;21.93;;;11.00;99.90;;;;;;4974191;28;20189;-75
2022/09/17 08:49:20;;;;;;;44.53;42.23;;;11.00;99.90;;;;;;4973462;28;20220;-76
2022/09/17 08:52:22;;;;;;;52.80;49.80;;;11.00;99.90;;;;;;4972399;28;20181;-75
2022/09/17 08:55:15;;;;;;;46.97;43.77;;;11.00;99.90;;;;;;4973586;28;20192;-75
2022/09/17 08:58:09;;;;;;;9.50;8.87;;;11.00;99.90;;;;;;4972936;28;20184;-75
2022/09/17 09:01:17;;;;;;;8.17;7.43;;;11.10;99.90;;;;;;4973452;28;20212;-76
2022/09/17 09:03:49;;;;;;;8.20;7.40;;;11.30;99.90;;;;;;4973098;28;20192;-75
2022/09/17 09:06:16;;;;;;;8.30;7.77;;;11.50;99.90;;;;;;4974853;28;20190;-78
2022/09/17 09:08:46;;;;;;;66.77;63.47;;;11.70;99.90;;;;;;4976143;28;20239;-77
2022/09/17 09:11:15;;;;;;;77.37;72.33;;;11.80;99.90;;;;;;4973804;28;20183;-76
2022/09/17 09:13:45;;;;;;;42.83;39.50;;;11.80;99.90;;;;;;4972213;28;20680;-76
2022/09/17 09:16:17;;;;;;;15.33;13.77;;;11.90;99.90;;;;;;4973162;28;20192;-76
2022/09/17 09:18:45;;;;;;;18.03;16.23;;;12.10;99.90;;;;;;4973014;28;20205;-76
2022/09/17 09:21:19;;;;;;;11.43;10.33;;;12.30;99.90;;;;;;4968097;28;20215;-76
2022/09/17 09:24:25;;;;;;;10.23;9.53;;;12.50;99.90;;;;;;4964798;28;20180;-77
2022/09/17 09:27:08;;;;;;;15.93;11.80;;;12.70;99.90;;;;;;4953101;28;20279;-76
2022/09/17 09:30:01;;;;;;;14.47;12.27;;;12.60;99.90;;;;;;4974858;28;20227;-76
2022/09/17 09:32:51;;;;;;;26.87;24.80;;;12.80;99.90;;;;;;4971797;28;20191;-77
2022/09/17 09:35:23;;;;;;;22.40;20.27;;;12.90;99.90;;;;;;4973201;28;20228;-76
2022/09/17 09:37:59;;;;;;;15.33;14.03;;;13.30;99.90;;;;;;4963166;28;20192;-76
2022/09/17 09:40:39;;;;;;;8.63;7.93;;;13.40;99.90;;;;;;4967518;28;20215;-76
2022/09/17 09:43:18;;;;;;;9.73;6.03;;;13.50;99.90;;;;;;4972075;28;20184;-77
2022/09/17 09:45:50;;;;;;;7.33;5.33;;;13.40;99.90;;;;;;4971025;28;20181;-75
2022/09/17 09:48:45;;;;;;;10.37;6.40;;;13.20;99.90;;;;;;4969614;28;20212;-76
2022/09/17 09:51:55;;;;;;;17.10;12.80;;;13.00;99.90;;;;;;5007667;23;20232;-76
2022/09/17 09:54:40;;;;;;;14.30;12.90;;;12.80;99.90;;;;;;4973600;28;20191;-76
2022/09/17 09:57:15;;;;;;;13.30;11.83;;;12.80;99.90;;;;;;4972383;28;20182;-76
2022/09/17 09:59:40;;;;;;;7.77;7.17;;;13.20;99.90;;;;;;4990575;28;20207;-76
2022/09/17 10:02:07;;;;;;;9.67;8.63;;;13.10;99.90;;;;;;4989899;28;20262;-75
2022/09/17 10:04:33;;;;;;;10.33;9.53;;;12.80;99.90;;;;;;4990177;28;20733;-76
2022/09/17 10:07:05;;;;;;;11.87;10.87;;;12.70;99.90;;;;;;4991147;28;20576;-75
2022/09/17 10:09:37;;;;;;;8.67;7.87;;;12.70;99.90;;;;;;4989648;28;20235;-75
2022/09/17 10:12:12;;;;;;;9.67;6.43;;;12.70;99.90;;;;;;4977120;28;20186;-75
2022/09/17 10:14:45;;;;;;;10.00;5.87;;;12.70;99.90;;;;;;4991356;28;20183;-75
2022/09/17 10:17:15;;;;;;;7.60;6.00;;;12.90;99.90;;;;;;4991207;28;20279;-75
2022/09/17 10:19:42;;;;;;;8.37;6.77;;;12.90;99.90;;;;;;4973856;28;20200;-75
2022/09/17 10:22:37;;;;;;;9.80;6.30;;;12.90;99.90;;;;;;4973982;28;20192;-75
2022/09/17 10:25:06;;;;;;;7.20;6.60;;;13.00;99.90;;;;;;4977598;28;20193;-77
2022/09/17 10:27:35;;;;;;;14.47;7.60;;;13.00;99.90;;;;;;4957579;28;20185;-75
2022/09/17 10:30:14;;;;;;;9.60;7.60;;;13.00;99.90;;;;;;4974026;28;20267;-75
2022/09/17 10:32:40;;;;;;;7.27;5.67;;;13.10;99.90;;;;;;4972481;28;20184;-75
2022/09/17 10:35:15;;;;;;;8.43;5.60;;;13.10;99.90;;;;;;4954675;28;20188;-75
2022/09/17 10:37:49;;;;;;;7.47;5.47;;;13.10;99.90;;;;;;4973859;28;20226;-75
2022/09/17 10:40:28;;;;;;;7.97;4.60;;;13.50;99.90;;;;;;4991120;28;20203;-75
2022/09/17 10:43:18;;;;;;;6.67;6.17;;;13.80;99.90;;;;;;4991630;28;20540;-75
2022/09/17 10:45:55;;;;;;;7.13;6.47;;;14.40;99.90;;;;;;4977869;28;20692;-75
2022/09/17 10:48:22;;;;;;;19.13;17.67;;;15.80;99.90;;;;;;4977381;28;20200;-75
2022/09/17 10:50:51;;;;;;;9.07;8.17;;;16.80;99.90;;;;;;4977506;28;20275;-75
2022/09/17 10:53:19;;;;;;;5.17;4.77;;;16.90;99.90;;;;;;4979203;28;20654;-75
2022/09/17 10:56:17;;;;;;;5.47;5.07;;;16.50;99.90;;;;;;4975761;28;20185;-75
2022/09/17 10:59:00;;;;;;;7.90;5.30;;;15.70;99.90;;;;;;4976000;28;20185;-75
2022/09/17 11:02:30;;;;;;;7.77;6.00;;;15.10;99.90;;;;;;4976301;28;20650;-75
2022/09/17 11:05:42;;;;;;;8.97;8.17;;;14.60;99.90;;;;;;4878706;29;20215;-76
2022/09/17 11:08:34;;;;;;;8.47;5.60;;;14.70;99.90;;;;;;4856114;29;20249;-78
2022/09/17 11:11:05;;;;;;;8.87;5.33;;;15.50;99.90;;;;;;4956491;29;20232;-77
2022/09/17 11:13:56;;;;;;;5.83;5.40;;;15.70;99.90;;;;;;4960131;29;20270;-76
2022/09/17 11:16:44;;;;;;;5.83;5.20;;;16.10;99.90;;;;;;4919448;29;20217;-76
2022/09/17 11:19:22;;;;;;;10.17;9.47;;;16.50;99.90;;;;;;4956106;29;20189;-76
2022/09/17 11:22:04;;;;;;;15.90;14.77;;;17.00;99.90;;;;;;4956197;29;20177;-77
2022/09/17 11:24:51;;;;;;;11.63;10.60;;;17.00;99.90;;;;;;4955939;29;20693;-76
2022/09/17 11:27:32;;;;;;;13.13;11.87;;;16.30;99.90;;;;;;4938220;29;20275;-76
2022/09/17 11:30:13;;;;;;;22.73;21.33;;;16.00;99.90;;;;;;4955527;29;20702;-76
2022/09/17 11:32:45;;;;;;;15.50;14.37;;;16.00;99.90;;;;;;4938565;29;20181;-76
2022/09/17 11:35:16;;;;;;;18.30;16.87;;;16.20;99.90;;;;;;4968470;28;20184;-76
2022/09/17 11:38:04;;;;;;;12.63;11.90;;;15.90;99.90;;;;;;4993873;28;20220;-76
2022/09/17 11:40:39;;;;;;;16.70;15.43;;;15.60;99.90;;;;;;4985229;28;20243;-77
2022/09/17 11:43:16;;;;;;;19.07;18.03;;;15.50;99.90;;;;;;4998097;28;20183;-76
2022/09/17 11:46:09;;;;;;;16.53;15.53;;;15.40;99.90;;;;;;4994932;28;20707;-78
2022/09/17 11:49:02;;;;;;;13.63;12.73;;;15.40;99.90;;;;;;4983926;28;20209;-77
2022/09/17 11:51:55;;;;;;;16.80;16.10;;;15.10;99.90;;;;;;4952779;28;20568;-77
2022/09/17 11:54:29;;;;;;;3.33;3.23;;;14.50;99.90;;;;;;4973431;28;20194;-77
2022/09/17 11:57:18;;;;;;;9.07;8.30;;;13.80;99.90;;;;;;4974408;28;20657;-76
2022/09/17 11:59:57;;;;;;;6.27;5.87;;;13.20;99.90;;;;;;4974611;28;20236;-76
2022/09/17 12:02:43;;;;;;;11.50;10.80;;;12.80;99.90;;;;;;4982930;28;20540;-77
2022/09/17 12:05:23;;;;;;;10.03;9.53;;;12.60;99.90;;;;;;4993911;28;20207;-76
2022/09/17 12:07:56;;;;;;;17.50;16.70;;;12.60;99.90;;;;;;4993299;28;20192;-76
2022/09/17 12:10:51;;;;;;;24.27;22.73;;;12.60;99.90;;;;;;4978402;28;20228;-77
2022/09/17 12:13:43;;;;;;;8.70;6.80;;;12.30;99.90;;;;;;4979673;28;20219;-78
2022/09/17 12:16:25;;;;;;;14.63;13.77;;;12.10;99.90;;;;;;4978123;28;20649;-77
2022/09/17 12:19:41;;;;;;;26.03;23.47;;;13.30;99.90;;;;;;4976564;28;20188;-77
2022/09/17 12:22:28;;;;;;;8.10;7.30;;;15.20;99.90;;;;;;4934862;28;20250;-77
2022/09/17 12:24:54;;;;;;;5.80;5.50;;;16.90;99.90;;;;;;4994057;28;20184;-78
2022/09/17 12:27:23;;;;;;;7.13;6.70;;;16.70;99.90;;;;;;4979739;28;20184;-76
2022/09/17 12:30:10;;;;;;;16.90;15.97;;;16.00;99.90;;;;;;4992432;28;20216;-78
2022/09/17 12:32:55;;;;;;;40.27;37.77;;;15.50;99.90;;;;;;4967264;28;20715;-77
2022/09/17 12:35:46;;;;;;;17.40;16.37;;;15.50;99.90;;;;;;4976926;28;20599;-77
2022/09/17 12:38:42;;;;;;;17.70;16.60;;;15.60;99.90;;;;;;4975220;28;20185;-77
2022/09/17 12:41:25;;;;;;;19.57;18.50;;;15.80;99.90;;;;;;4994139;28;20211;-78
2022/09/17 12:44:21;;;;;;;38.07;36.07;;;16.40;99.90;;;;;;4989676;28;20669;-78
2022/09/17 12:47:09;;;;;;;12.57;11.73;;;17.30;99.90;;;;;;4943079;28;20243;-76
2022/09/17 12:50:04;;;;;;;10.77;9.90;;;19.00;99.90;;;;;;4955900;28;20732;-77
2022/09/17 12:52:44;;;;;;;7.00;6.67;;;18.40;99.90;;;;;;4961631;28;20589;-76
2022/09/17 12:55:19;;;;;;;13.80;12.80;;;17.80;99.90;;;;;;4976039;28;20196;-76
2022/09/17 12:57:54;;;;;;;18.10;17.17;;;17.00;99.90;;;;;;4978265;28;20175;-76
2022/09/17 13:00:20;;;;;;;15.83;15.03;;;15.80;99.90;;;;;;4975508;28;20208;-76
2022/09/17 13:03:31;;;;;;;7.90;7.37;;;15.50;99.90;;;;;;4992735;28;20243;-76
2022/09/17 13:06:25;;;;;;;20.37;19.30;;;15.80;99.90;;;;;;4914125;29;20183;-79